Terminal Aerodrome Forecast
Issued by NWS Brownsville, TX

Home | Current Version | Previous Version | Text Only | Print | Product List | Glossary On
Versions: 1 2 3 4 5 6 7 8 9 10 11 12 13 14 15 16
000
FTUS44 KBRO 281137
TAFBRO
TAF
KBRO 281137Z 2812/2912 15005KT P6SM SKC
     FM281500 16010G17KT P6SM FEW035
     FM281700 14015G20KT P6SM SCT045
     FM290200 15007KT P6SM SKC=

USA.gov is the U.S. government's official web portal to all federal, state and local government web resources and services.